Altus AFB, Oklahoma
Current Conditions -  °F | °C
As of 3:58 PM on Friday 28 Nov 2014 (Local Time) from KLTS Reporting Station
Clear Clear  
Wind Chill: 73°   Ceiling: Unl
Heat Index: 73°   Visibility: 10mi
Dew Point: 40°   Wind: 16mph
Humidity: 31%   Direction: 170°S
Pressure: 29.88"   Gusts: NA
Location:  34.65°N, 99.28°W
Report Text: KLTS 282158Z AUTO 17014KT 10SM CLR 23/05 A2988 RMK AO2 SLP116 T02270045 $
Loading
Personal Weather Stations






























Interactive Weather Map New forecast layout! Learn more

10-Day Weather Forecast

Advertisements
Track Severe Weather on mobile